Time;durP1;ratioP1;P1;durP2;ratioP2;P2;SDS_P1;SDS_P2;PMS_P1;PMS_P2;Temp;Humidity;BMP_temperature;BMP_pressure;BME280_temperature;BME280_humidity;BME280_pressure;Samples;Min_cycle;Max_cycle;Signal;HPM_P1;HPM_P2
2023/04/05 00:04:13;;;;;;;8.50;2.72;;;2.70;99.90;;;;;;5005510;28;20250;-84
2023/04/05 00:06:58;;;;;;;4.78;2.50;;;2.70;99.90;;;;;;4992315;28;20058;-85
2023/04/05 00:09:29;;;;;;;7.85;2.95;;;2.60;99.90;;;;;;4992401;28;20046;-85
2023/04/05 00:12:23;;;;;;;;;;;;;;;;;;;;;
2023/04/05 00:15:52;;;;;;;6.57;2.70;;;2.60;99.90;;;;;;4948768;28;20133;-86
2023/04/05 00:18:28;;;;;;;6.38;2.55;;;2.60;99.90;;;;;;4893287;28;20051;-85
2023/04/05 00:21:02;;;;;;;5.78;2.60;;;2.60;99.90;;;;;;4942009;28;20100;-85
2023/04/05 00:23:37;;;;;;;6.50;2.67;;;2.50;99.90;;;;;;4984275;28;20582;-85
2023/04/05 00:26:42;;;;;;;7.00;2.75;;;2.50;99.90;;;;;;4997929;28;20180;-84
2023/04/05 00:29:15;;;;;;;9.98;2.40;;;2.50;99.90;;;;;;4994156;28;20034;-84
2023/04/05 00:31:43;;;;;;;10.05;2.95;;;2.50;99.90;;;;;;5013757;28;20038;-86
2023/04/05 00:34:14;;;;;;;6.63;3.83;;;2.40;99.90;;;;;;5013203;28;20125;-85
2023/04/05 00:37:19;;;;;;;7.70;3.22;;;2.40;99.90;;;;;;4996135;28;20509;-84
2023/04/05 00:39:56;;;;;;;7.47;2.92;;;2.40;99.90;;;;;;5009127;28;20042;-85
2023/04/05 00:42:28;;;;;;;;;;;2.30;99.90;;;;;;5008094;28;20423;-84
2023/04/05 00:44:53;;;;;;;5.60;2.38;;;2.30;99.90;;;;;;5000123;23;19922;-67
2023/04/05 00:47:19;;;;;;;9.17;2.83;;;2.30;99.90;;;;;;4999415;28;20042;-67
2023/04/05 00:49:48;;;;;;;7.33;3.30;;;2.30;99.90;;;;;;4986205;28;20045;-67
2023/04/05 00:52:14;;;;;;;6.68;2.72;;;2.30;99.90;;;;;;5002070;28;20046;-67
2023/04/05 00:54:42;;;;;;;5.20;2.45;;;2.20;99.90;;;;;;5004632;28;20067;-67
2023/04/05 00:57:08;;;;;;;7.13;2.33;;;2.20;99.90;;;;;;4994427;28;20060;-67
2023/04/05 00:59:34;;;;;;;7.15;3.28;;;2.20;99.90;;;;;;5000424;28;20061;-67
2023/04/05 01:02:07;;;;;;;4.87;2.10;;;2.10;99.90;;;;;;5001943;28;20037;-67
2023/04/05 01:04:36;;;;;;;6.07;3.22;;;2.10;99.90;;;;;;4995972;28;20518;-67
2023/04/05 01:07:11;;;;;;;7.72;2.55;;;2.10;99.90;;;;;;4993475;28;20107;-67
2023/04/05 01:09:51;;;;;;;12.30;3.40;;;2.10;99.90;;;;;;4994840;28;20120;-67
2023/04/05 01:12:19;;;;;;;5.20;2.33;;;2.00;99.90;;;;;;5002014;28;20053;-67
2023/04/05 01:14:50;;;;;;;8.18;3.13;;;2.00;99.90;;;;;;4998268;28;20049;-67
2023/04/05 01:17:35;;;;;;;6.20;2.95;;;2.00;99.90;;;;;;5010728;28;20449;-67
2023/04/05 01:20:10;;;;;;;8.18;3.47;;;2.00;99.90;;;;;;4999243;28;20044;-67
2023/04/05 01:23:16;;;;;;;7.15;2.75;;;2.00;99.90;;;;;;5017612;28;20033;-67
2023/04/05 01:26:16;;;;;;;8.18;3.33;;;2.00;99.90;;;;;;4961706;28;20695;-67
2023/04/05 01:29:02;;;;;;;6.30;2.95;;;1.90;99.90;;;;;;4997984;28;20050;-67
2023/04/05 01:31:52;;;;;;;8.95;3.17;;;1.90;99.90;;;;;;5002221;28;20391;-67
2023/04/05 01:34:30;;;;;;;6.47;3.10;;;1.80;99.90;;;;;;4995730;28;20033;-67
2023/04/05 01:37:01;;;;;;;4.75;2.50;;;1.80;99.90;;;;;;5002129;28;20621;-67
2023/04/05 01:39:30;;;;;;;5.93;3.15;;;1.80;99.90;;;;;;4986208;28;20044;-67
2023/04/05 01:42:00;;;;;;;10.10;3.15;;;1.80;99.90;;;;;;5020578;28;20064;-68
2023/04/05 01:44:26;;;;;;;7.88;3.00;;;1.70;99.90;;;;;;5000370;28;20057;-68
2023/04/05 01:46:52;;;;;;;6.70;2.80;;;1.70;99.90;;;;;;5000493;28;20040;-68
2023/04/05 01:49:18;;;;;;;6.97;3.37;;;1.70;99.90;;;;;;5001834;28;20546;-68
2023/04/05 01:51:44;;;;;;;7.75;2.80;;;1.70;99.90;;;;;;5015880;28;20048;-68
2023/04/05 01:54:10;;;;;;;8.00;3.00;;;1.60;99.90;;;;;;4985470;28;20049;-67
2023/04/05 01:56:35;;;;;;;4.27;2.30;;;1.60;99.90;;;;;;5018124;28;20041;-68
2023/04/05 01:59:01;;;;;;;5.53;2.73;;;1.60;99.90;;;;;;5013496;28;20040;-68
2023/04/05 02:01:29;;;;;;;6.60;3.20;;;1.50;99.90;;;;;;5018253;28;20048;-68
2023/04/05 02:03:55;;;;;;;9.02;3.20;;;1.50;99.90;;;;;;4992526;28;20049;-68
2023/04/05 02:06:21;;;;;;;5.23;2.90;;;1.40;99.90;;;;;;5012773;28;20091;-68
2023/04/05 02:08:47;;;;;;;6.55;2.95;;;1.40;99.90;;;;;;5011147;28;20050;-67
2023/04/05 02:11:13;;;;;;;5.83;3.50;;;1.40;99.90;;;;;;5006817;28;20084;-68
2023/04/05 02:13:38;;;;;;;6.10;2.77;;;1.40;99.90;;;;;;5003587;28;20044;-68
2023/04/05 02:16:04;;;;;;;8.77;3.10;;;1.40;99.90;;;;;;5006330;28;20092;-68
2023/04/05 02:18:30;;;;;;;6.70;3.10;;;1.30;99.90;;;;;;5002630;28;20080;-68
2023/04/05 02:21:03;;;;;;;10.30;3.75;;;1.40;99.90;;;;;;5014306;28;20456;-68
2023/04/05 02:23:30;;;;;;;6.18;2.80;;;1.30;99.90;;;;;;5000137;28;20132;-68
2023/04/05 02:25:58;;;;;;;;;;;1.30;99.90;;;;;;4993551;28;20115;-68
2023/04/05 02:28:26;;;;;;;;;;;1.30;99.90;;;;;;5009677;28;19978;-68
2023/04/05 02:30:55;;;;;;;8.85;2.97;;;1.30;99.90;;;;;;4997156;28;19921;-68
2023/04/05 02:33:23;;;;;;;7.75;3.13;;;1.30;99.90;;;;;;4997920;28;20053;-68
2023/04/05 02:35:50;;;;;;;8.32;2.88;;;1.30;99.90;;;;;;4992661;28;20040;-68
2023/04/05 02:38:16;;;;;;;5.63;2.83;;;1.20;99.90;;;;;;5012538;28;20507;-68
2023/04/05 02:40:42;;;;;;;9.47;3.63;;;1.30;99.90;;;;;;5000369;28;20194;-68
2023/04/05 02:43:07;;;;;;;9.53;3.27;;;1.20;99.90;;;;;;4997403;28;20034;-68
2023/04/05 02:45:33;;;;;;;7.83;3.53;;;1.20;99.90;;;;;;5002616;28;20243;-68
2023/04/05 02:47:59;;;;;;;6.50;2.83;;;1.20;99.90;;;;;;5004411;28;20399;-68
2023/04/05 02:50:26;;;;;;;4.93;3.00;;;1.20;99.90;;;;;;5002905;28;20048;-68
2023/04/05 02:52:52;;;;;;;11.57;3.80;;;1.20;99.90;;;;;;4997570;28;20073;-68
2023/04/05 02:55:18;;;;;;;7.50;2.83;;;1.10;99.90;;;;;;4996185;28;20445;-68
2023/04/05 02:57:44;;;;;;;6.27;2.77;;;1.10;99.90;;;;;;5001829;28;20496;-68
2023/04/05 03:00:11;;;;;;;7.03;3.13;;;1.10;99.90;;;;;;5001910;28;20087;-68
2023/04/05 03:02:39;;;;;;;8.38;3.22;;;1.10;99.90;;;;;;4983297;28;20077;-68
2023/04/05 03:05:06;;;;;;;8.70;3.28;;;1.10;99.90;;;;;;5001051;28;20048;-68
2023/04/05 03:07:34;;;;;;;7.07;3.80;;;1.00;99.90;;;;;;4996559;28;20037;-68
2023/04/05 03:10:00;;;;;;;6.32;3.45;;;1.00;99.90;;;;;;5006810;28;20539;-68
2023/04/05 03:12:25;;;;;;;9.60;3.70;;;1.10;99.90;;;;;;5017214;28;20128;-68
2023/04/05 03:14:54;;;;;;;5.03;2.77;;;1.00;99.90;;;;;;5020440;28;20542;-68
2023/04/05 03:17:20;;;;;;;13.02;3.50;;;0.90;99.90;;;;;;5008053;28;20043;-68
2023/04/05 03:19:45;;;;;;;7.43;3.97;;;1.00;99.90;;;;;;5022473;28;20049;-68
2023/04/05 03:22:11;;;;;;;8.70;4.00;;;1.00;99.90;;;;;;5006053;28;20487;-68
2023/04/05 03:24:36;;;;;;;10.07;3.87;;;0.90;99.90;;;;;;4995002;28;20041;-68
2023/04/05 03:27:04;;;;;;;10.37;4.03;;;0.90;99.90;;;;;;5020500;28;20212;-68
2023/04/05 03:29:30;;;;;;;7.50;3.70;;;0.90;99.90;;;;;;4979883;28;20049;-68
2023/04/05 03:31:58;;;;;;;7.10;3.60;;;0.90;99.90;;;;;;5021350;28;20045;-68
2023/04/05 03:34:27;;;;;;;10.82;3.53;;;0.90;99.90;;;;;;4984502;28;20081;-68
2023/04/05 03:36:56;;;;;;;9.98;4.28;;;0.90;99.90;;;;;;4998858;28;20104;-68
2023/04/05 03:39:24;;;;;;;9.60;4.13;;;0.90;99.90;;;;;;5002195;28;20049;-68
2023/04/05 03:41:50;;;;;;;10.73;4.20;;;0.90;99.90;;;;;;4983711;28;20038;-68
2023/04/05 03:44:16;;;;;;;9.73;4.67;;;0.90;99.90;;;;;;5017084;28;20092;-68
2023/04/05 03:46:42;;;;;;;;;;;0.90;99.90;;;;;;5002534;28;20104;-68
2023/04/05 03:49:08;;;;;;;13.18;4.53;;;0.90;99.90;;;;;;5000124;28;19920;-68
2023/04/05 03:51:34;;;;;;;12.23;5.17;;;0.80;99.90;;;;;;5012347;28;20041;-68
2023/04/05 03:53:59;;;;;;;12.03;5.20;;;0.80;99.90;;;;;;5004633;28;20091;-68
2023/04/05 03:56:26;;;;;;;11.93;4.27;;;0.80;99.90;;;;;;5004466;28;20052;-68
2023/04/05 03:58:52;;;;;;;8.77;4.35;;;0.80;99.90;;;;;;5002873;28;20555;-68
2023/04/05 04:01:17;;;;;;;13.85;4.70;;;0.80;99.90;;;;;;5006775;28;20075;-68
2023/04/05 04:03:43;;;;;;;10.63;4.60;;;0.70;99.90;;;;;;4998543;28;20046;-68
2023/04/05 04:06:10;;;;;;;10.60;4.80;;;0.80;99.90;;;;;;5015280;28;20029;-68
2023/04/05 04:08:36;;;;;;;10.57;5.43;;;0.80;99.90;;;;;;5006703;28;20370;-68
2023/04/05 04:11:02;;;;;;;11.30;4.95;;;0.70;99.90;;;;;;4996012;28;20136;-68
2023/04/05 04:13:27;;;;;;;9.10;5.10;;;0.80;99.90;;;;;;5008408;28;20120;-68
2023/04/05 04:15:53;;;;;;;10.57;4.20;;;0.80;99.90;;;;;;5009327;28;20061;-68
2023/04/05 04:18:19;;;;;;;11.53;4.80;;;0.80;99.90;;;;;;5007686;28;20041;-68
2023/04/05 04:20:45;;;;;;;12.80;5.00;;;0.80;99.90;;;;;;5007337;28;20490;-68
2023/04/05 04:23:13;;;;;;;9.17;4.67;;;0.80;99.90;;;;;;5015791;28;20033;-68
2023/04/05 04:25:40;;;;;;;11.93;5.20;;;0.70;99.90;;;;;;5006476;28;20046;-68
2023/04/05 04:28:06;;;;;;;8.63;4.47;;;0.70;99.90;;;;;;5001186;28;20042;-68
2023/04/05 04:30:33;;;;;;;13.60;6.13;;;0.80;99.90;;;;;;5016502;28;20137;-68
2023/04/05 04:33:02;;;;;;;10.60;5.10;;;0.70;99.90;;;;;;4997741;28;20050;-68
2023/04/05 04:35:29;;;;;;;12.43;5.70;;;0.70;99.90;;;;;;5003941;28;20511;-68
2023/04/05 04:38:19;;;;;;;12.32;5.15;;;0.70;99.90;;;;;;5018441;28;20038;-68
2023/04/05 04:40:52;;;;;;;10.88;4.25;;;0.70;99.90;;;;;;4991522;28;20049;-68
2023/04/05 04:43:25;;;;;;;15.13;4.63;;;0.70;99.90;;;;;;5005303;28;20045;-68
2023/04/05 04:45:54;;;;;;;9.95;3.88;;;0.70;99.90;;;;;;5024106;28;20630;-68
2023/04/05 04:48:23;;;;;;;12.03;5.80;;;0.60;99.90;;;;;;4985186;28;20311;-68
2023/04/05 04:50:48;;;;;;;11.23;5.70;;;0.70;99.90;;;;;;4999805;28;20120;-68
2023/04/05 04:53:17;;;;;;;15.70;5.87;;;0.70;99.90;;;;;;5017689;28;20053;-68
2023/04/05 04:55:43;;;;;;;12.82;5.63;;;0.60;99.90;;;;;;4997381;28;20053;-68
2023/04/05 04:58:11;;;;;;;14.00;6.20;;;0.70;99.90;;;;;;4987711;28;20090;-68
2023/04/05 05:00:43;;;;;;;12.45;6.72;;;0.60;99.90;;;;;;5002676;28;20653;-68
2023/04/05 05:03:12;;;;;;;13.63;5.82;;;0.60;99.90;;;;;;5005377;28;20117;-68
2023/04/05 05:05:45;;;;;;;10.57;5.55;;;0.60;99.90;;;;;;4994598;28;20052;-68
2023/04/05 05:08:12;;;;;;;10.80;6.07;;;0.60;99.90;;;;;;4990715;28;20042;-68
2023/04/05 05:10:37;;;;;;;11.57;4.90;;;0.60;99.90;;;;;;4995338;28;20060;-68
2023/04/05 05:13:03;;;;;;;13.00;5.90;;;0.60;99.90;;;;;;4980561;28;20050;-68
2023/04/05 05:15:29;;;;;;;9.63;5.67;;;0.60;99.90;;;;;;4999625;28;20049;-68
2023/04/05 05:17:54;;;;;;;12.87;6.30;;;0.60;99.90;;;;;;4999206;28;20059;-68
2023/04/05 05:20:20;;;;;;;13.57;5.50;;;0.60;99.90;;;;;;4995004;28;20080;-68
2023/04/05 05:22:49;;;;;;;11.27;5.55;;;0.60;99.90;;;;;;5018039;28;20049;-68
2023/04/05 05:25:15;;;;;;;11.43;5.30;;;0.60;99.90;;;;;;5015576;28;20295;-68
2023/04/05 05:27:41;;;;;;;8.47;5.27;;;0.60;99.90;;;;;;5001419;28;20043;-68
2023/04/05 05:30:08;;;;;;;10.20;5.60;;;0.60;99.90;;;;;;4997371;28;20113;-68
2023/04/05 05:32:33;;;;;;;;;;;0.60;99.90;;;;;;5005371;28;20478;-68
2023/04/05 05:34:59;;;;;;;10.35;4.65;;;0.70;99.90;;;;;;4997996;28;19924;-68
2023/04/05 05:37:32;;;;;;;13.20;4.97;;;0.70;99.90;;;;;;5002172;28;20494;-68
2023/04/05 05:39:58;;;;;;;9.38;5.38;;;0.70;99.90;;;;;;5006223;28;20045;-68
2023/04/05 05:42:23;;;;;;;14.70;6.50;;;0.70;99.90;;;;;;5002915;28;20580;-72
2023/04/05 05:44:49;;;;;;;19.53;7.23;;;0.80;99.90;;;;;;5003668;28;20219;-71
2023/04/05 05:47:14;;;;;;;10.30;5.63;;;0.80;99.90;;;;;;5016177;28;20267;-69
2023/04/05 05:49:40;;;;;;;10.07;5.07;;;0.90;99.90;;;;;;5001181;28;20499;-68
2023/04/05 05:52:06;;;;;;;11.27;5.30;;;0.90;99.90;;;;;;5016437;28;20045;-68
2023/04/05 05:54:31;;;;;;;16.60;5.63;;;0.90;99.90;;;;;;5014114;23;20415;-69
2023/04/05 05:56:57;;;;;;;12.50;5.67;;;1.00;99.90;;;;;;4992512;28;20049;-71
2023/04/05 05:59:23;;;;;;;19.90;6.53;;;1.00;99.90;;;;;;4993308;28;20072;-71
2023/04/05 06:01:50;;;;;;;14.20;6.60;;;1.10;99.90;;;;;;5007382;28;20066;-71
2023/04/05 06:04:16;;;;;;;13.32;5.63;;;1.20;99.90;;;;;;4993792;28;20201;-70
2023/04/05 06:06:42;;;;;;;11.20;5.90;;;1.20;99.90;;;;;;4989721;28;20419;-71
2023/04/05 06:09:09;;;;;;;14.02;6.03;;;1.30;99.90;;;;;;4996640;28;20053;-69
2023/04/05 06:11:35;;;;;;;15.90;6.43;;;1.30;99.90;;;;;;4981997;28;20046;-70
2023/04/05 06:14:01;;;;;;;12.27;6.23;;;1.40;99.90;;;;;;4998899;28;20049;-74
2023/04/05 06:16:28;;;;;;;18.47;7.37;;;1.40;99.90;;;;;;4980656;28;20606;-71
2023/04/05 06:18:55;;;;;;;13.32;5.60;;;1.50;99.90;;;;;;4991884;28;20283;-72
2023/04/05 06:21:20;;;;;;;14.40;6.55;;;1.60;99.90;;;;;;4993224;28;20630;-71
2023/04/05 06:23:46;;;;;;;12.57;6.57;;;1.70;99.90;;;;;;4988075;28;20101;-71
2023/04/05 06:26:20;;;;;;;16.67;6.47;;;1.70;99.90;;;;;;4992962;28;20074;-72
2023/04/05 06:28:49;;;;;;;12.77;5.97;;;1.80;99.90;;;;;;4987349;28;20302;-71
2023/04/05 06:31:19;;;;;;;11.98;6.43;;;1.80;99.90;;;;;;4980345;28;20045;-71
2023/04/05 06:33:45;;;;;;;11.98;6.45;;;1.90;99.90;;;;;;4977812;28;20053;-73
2023/04/05 06:36:10;;;;;;;13.03;6.27;;;1.90;99.90;;;;;;4996108;28;20043;-73
2023/04/05 06:38:38;;;;;;;16.93;7.57;;;2.00;99.90;;;;;;4982597;28;20038;-72
2023/04/05 06:41:04;;;;;;;16.35;6.95;;;2.10;99.90;;;;;;4994818;28;20085;-73
2023/04/05 06:43:30;;;;;;;12.87;6.90;;;2.10;99.90;;;;;;5000154;28;20985;-74
2023/04/05 06:45:56;;;;;;;12.82;6.65;;;2.20;99.90;;;;;;4976615;28;20380;-73
2023/04/05 06:48:22;;;;;;;13.68;6.55;;;2.30;99.90;;;;;;4993074;28;20057;-72
2023/04/05 06:50:56;;;;;;;14.47;6.90;;;2.30;99.90;;;;;;4992438;28;20090;-75
2023/04/05 06:53:22;;;;;;;15.25;7.38;;;2.40;99.90;;;;;;4994451;28;20050;-75
2023/04/05 06:55:49;;;;;;;13.73;6.77;;;2.40;99.90;;;;;;4996627;28;20049;-75
2023/04/05 06:58:15;;;;;;;16.88;7.45;;;2.50;99.90;;;;;;4995646;28;20606;-77
2023/04/05 07:00:41;;;;;;;14.50;7.00;;;2.60;99.90;;;;;;4995290;28;20137;-77
2023/04/05 07:03:06;;;;;;;14.00;7.10;;;2.60;99.90;;;;;;4993814;28;20046;-73
2023/04/05 07:05:32;;;;;;;19.33;6.47;;;2.70;99.90;;;;;;4992752;28;20103;-70
2023/04/05 07:07:58;;;;;;;16.43;7.90;;;2.80;99.90;;;;;;4990431;28;20046;-70
2023/04/05 07:10:23;;;;;;;14.20;7.57;;;2.80;99.90;;;;;;4995461;28;20258;-71
2023/04/05 07:12:50;;;;;;;14.93;6.70;;;2.90;99.90;;;;;;4985840;28;20053;-71
2023/04/05 07:15:15;;;;;;;;;;;3.00;99.90;;;;;;5001479;28;20572;-70
2023/04/05 07:17:41;;;;;;;13.90;7.05;;;3.00;99.90;;;;;;5006157;28;20175;-70
2023/04/05 07:20:07;;;;;;;13.67;7.03;;;3.10;99.90;;;;;;4991726;28;20103;-70
2023/04/05 07:22:34;;;;;;;14.60;7.85;;;3.10;99.90;;;;;;4995301;28;20484;-70
2023/04/05 07:25:00;;;;;;;11.90;6.63;;;3.20;99.90;;;;;;5001224;28;20084;-71
2023/04/05 07:27:26;;;;;;;14.17;6.97;;;3.20;99.90;;;;;;4991324;28;20484;-70
2023/04/05 07:29:51;;;;;;;13.67;7.33;;;3.30;99.90;;;;;;4995348;28;20432;-70
2023/04/05 07:32:17;;;;;;;16.50;7.00;;;3.40;99.90;;;;;;4993818;28;20808;-70
2023/04/05 07:34:43;;;;;;;14.07;7.27;;;3.50;99.90;;;;;;5000458;28;20078;-70
2023/04/05 07:37:08;;;;;;;16.80;7.20;;;3.60;99.90;;;;;;4989934;28;20239;-70
2023/04/05 07:39:34;;;;;;;10.50;5.63;;;3.60;99.90;;;;;;4992648;28;20042;-70
2023/04/05 07:42:00;;;;;;;14.52;6.20;;;3.60;99.90;;;;;;4997884;28;20058;-70
2023/04/05 07:44:26;;;;;;;15.60;6.80;;;3.70;99.90;;;;;;4996381;28;20167;-71
2023/04/05 07:46:51;;;;;;;14.93;6.97;;;3.80;99.90;;;;;;4993864;28;20042;-70
2023/04/05 07:49:17;;;;;;;11.50;6.57;;;3.90;99.90;;;;;;5002393;28;20427;-70
2023/04/05 07:51:42;;;;;;;12.83;6.63;;;4.00;99.90;;;;;;4995802;28;20117;-70
2023/04/05 07:54:09;;;;;;;13.77;7.17;;;4.10;99.90;;;;;;4989882;28;20392;-71
2023/04/05 07:56:36;;;;;;;12.95;7.07;;;4.10;99.90;;;;;;5018397;28;20050;-70
2023/04/05 07:59:02;;;;;;;12.25;6.22;;;4.30;99.90;;;;;;4998381;28;20552;-70
2023/04/05 08:01:28;;;;;;;10.10;5.77;;;4.30;99.90;;;;;;4992830;28;20030;-70
2023/04/05 08:03:56;;;;;;;11.33;7.17;;;4.40;99.90;;;;;;4994342;28;20529;-70
2023/04/05 08:06:23;;;;;;;10.25;5.97;;;4.50;99.90;;;;;;4989546;28;20696;-71
2023/04/05 08:08:49;;;;;;;12.10;7.00;;;4.60;99.90;;;;;;4995353;28;20316;-71
2023/04/05 08:11:15;;;;;;;11.77;6.93;;;4.70;99.90;;;;;;4991508;28;20129;-70
2023/04/05 08:13:40;;;;;;;11.67;6.20;;;4.80;99.90;;;;;;4995766;28;20117;-71
2023/04/05 08:16:07;;;;;;;11.90;6.63;;;4.80;99.90;;;;;;5011934;28;20045;-70
2023/04/05 08:18:33;;;;;;;;;;;4.90;99.90;;;;;;4991706;28;20050;-69
2023/04/05 08:20:59;;;;;;;13.13;6.45;;;5.00;99.90;;;;;;4993248;28;19918;-69
2023/04/05 08:23:25;;;;;;;12.98;5.75;;;5.10;99.90;;;;;;4992589;28;20041;-69
2023/04/05 08:25:52;;;;;;;13.68;5.90;;;5.20;99.90;;;;;;4994062;28;20180;-69
2023/04/05 08:28:17;;;;;;;13.13;6.30;;;5.30;99.90;;;;;;4996908;28;20391;-73
2023/04/05 08:30:44;;;;;;;13.60;6.47;;;5.30;99.90;;;;;;4975994;28;20046;-70
2023/04/05 08:33:10;;;;;;;13.52;5.75;;;5.50;99.90;;;;;;4993690;28;20275;-75
2023/04/05 08:35:36;;;;;;;10.60;5.90;;;5.50;99.90;;;;;;4972295;28;20129;-71
2023/04/05 08:38:03;;;;;;;11.95;5.78;;;5.60;99.90;;;;;;4999322;28;20049;-76
2023/04/05 08:40:42;;;;;;;10.25;5.40;;;5.70;99.90;;;;;;4994891;28;20081;-68
2023/04/05 08:43:10;;;;;;;8.80;4.93;;;5.90;99.90;;;;;;4996721;28;20042;-68
2023/04/05 08:45:45;;;;;;;11.13;5.10;;;5.90;99.90;;;;;;4995778;28;20055;-69
2023/04/05 08:48:11;;;;;;;7.88;4.80;;;6.10;99.90;;;;;;4996289;28;20060;-69
2023/04/05 08:50:36;;;;;;;15.40;6.23;;;6.20;99.90;;;;;;4994802;28;20037;-68
2023/04/05 08:53:02;;;;;;;8.80;4.87;;;6.30;99.90;;;;;;4995925;28;20045;-68
2023/04/05 08:55:28;;;;;;;9.50;4.70;;;6.40;99.90;;;;;;4995862;28;20181;-68
2023/04/05 08:57:58;;;;;;;9.00;5.13;;;6.50;99.90;;;;;;4994161;28;20095;-68
2023/04/05 09:00:26;;;;;;;11.02;4.95;;;6.70;99.90;;;;;;4986688;28;20439;-68
2023/04/05 09:02:55;;;;;;;8.50;5.15;;;6.70;99.90;;;;;;4972311;28;20057;-69
2023/04/05 09:05:23;;;;;;;11.00;5.35;;;6.90;99.90;;;;;;4991649;28;20034;-69
2023/04/05 09:07:50;;;;;;;9.75;4.90;;;6.90;99.90;;;;;;4985378;28;20068;-73
2023/04/05 09:10:19;;;;;;;8.48;4.63;;;7.10;99.90;;;;;;4978644;28;20458;-70
2023/04/05 09:12:44;;;;;;;10.32;4.93;;;7.20;99.90;;;;;;4982197;28;20088;-68
2023/04/05 09:15:11;;;;;;;7.45;4.88;;;7.30;99.90;;;;;;4989618;28;20157;-68
2023/04/05 09:17:40;;;;;;;11.00;5.35;;;7.40;99.90;;;;;;4988539;28;20046;-68
2023/04/05 09:20:06;;;;;;;12.27;4.75;;;7.60;99.90;;;;;;4979059;28;20444;-71
2023/04/05 09:22:42;;;;;;;9.23;5.00;;;7.60;99.90;;;;;;4977606;28;20447;-69
2023/04/05 09:25:08;;;;;;;10.32;4.72;;;7.80;99.90;;;;;;4987199;28;20104;-69
2023/04/05 09:27:34;;;;;;;8.50;4.60;;;7.90;99.90;;;;;;4996834;28;20042;-69
2023/04/05 09:30:00;;;;;;;9.57;4.07;;;8.00;99.90;;;;;;4990015;28;20045;-69
2023/04/05 09:32:28;;;;;;;6.93;3.70;;;8.10;99.90;;;;;;4990408;28;20158;-68
2023/04/05 09:34:53;;;;;;;10.32;3.72;;;8.30;99.90;;;;;;4989222;28;20046;-69
2023/04/05 09:37:20;;;;;;;9.27;3.70;;;8.40;99.90;;;;;;4996536;28;20419;-69
2023/04/05 09:39:51;;;;;;;8.40;3.42;;;8.50;99.90;;;;;;4988422;28;20574;-70
2023/04/05 09:42:23;;;;;;;7.35;4.38;;;8.60;99.90;;;;;;4992131;28;20263;-69
2023/04/05 09:44:53;;;;;;;7.88;4.35;;;8.70;99.90;;;;;;4993549;28;20050;-69
2023/04/05 09:47:20;;;;;;;5.97;3.75;;;8.80;99.90;;;;;;4988227;28;20167;-69
2023/04/05 09:49:46;;;;;;;7.68;3.50;;;8.80;99.90;;;;;;5003001;28;20048;-68
2023/04/05 09:52:17;;;;;;;9.67;3.70;;;8.80;99.90;;;;;;4993464;28;20042;-68
2023/04/05 09:54:43;;;;;;;9.07;3.78;;;8.90;99.90;;;;;;4996879;28;20450;-68
2023/04/05 09:57:09;;;;;;;12.33;4.17;;;9.10;99.90;;;;;;4993468;28;20480;-69
2023/04/05 09:59:35;;;;;;;5.95;3.72;;;9.10;99.80;;;;;;5002113;28;20406;-69
2023/04/05 10:02:10;;;;;;;7.60;4.13;;;9.30;99.90;;;;;;5002101;28;20050;-68
2023/04/05 10:04:44;;;;;;;9.68;4.43;;;9.30;99.90;;;;;;4979085;28;20033;-69
2023/04/05 10:07:12;;;;;;;11.23;3.83;;;9.50;99.90;;;;;;4982009;28;20066;-69
2023/04/05 10:09:39;;;;;;;7.82;4.20;;;9.60;99.90;;;;;;4997110;28;20381;-68
2023/04/05 10:12:07;;;;;;;8.45;4.10;;;9.80;99.80;;;;;;4987557;28;20046;-69
2023/04/05 10:14:34;;;;;;;8.05;3.92;;;9.80;98.20;;;;;;4989671;28;20091;-69
2023/04/05 10:17:30;;;;;;;7.22;3.53;;;10.00;98.50;;;;;;4993954;28;20062;-72
2023/04/05 10:20:16;;;;;;;8.05;4.25;;;10.10;97.40;;;;;;5014013;28;20080;-70
2023/04/05 10:22:50;;;;;;;7.85;3.78;;;10.30;97.40;;;;;;4997438;28;20046;-73
2023/04/05 10:25:25;;;;;;;7.43;3.30;;;10.30;96.30;;;;;;4981840;28;20532;-69
2023/04/05 10:27:59;;;;;;;6.65;3.92;;;10.50;95.90;;;;;;4990085;28;20099;-68
2023/04/05 10:30:33;;;;;;;7.57;3.78;;;10.60;95.10;;;;;;4990264;28;20046;-68
2023/04/05 10:33:14;;;;;;;7.30;3.63;;;10.70;93.40;;;;;;5006564;28;20054;-69
2023/04/05 10:36:16;;;;;;;7.15;3.75;;;10.70;89.30;;;;;;4990095;28;20125;-68
2023/04/05 10:38:48;;;;;;;7.45;3.80;;;10.60;90.20;;;;;;4988277;28;20420;-69
2023/04/05 10:41:14;;;;;;;7.20;4.13;;;10.60;89.30;;;;;;4994101;28;20132;-69
2023/04/05 10:43:40;;;;;;;8.00;4.10;;;10.70;88.30;;;;;;4990959;28;20497;-68
2023/04/05 10:46:07;;;;;;;6.68;3.60;;;10.90;86.80;;;;;;4988079;28;20042;-69
2023/04/05 10:48:52;;;;;;;7.72;4.68;;;10.80;83.70;;;;;;4994209;28;20038;-69
2023/04/05 10:51:22;;;;;;;6.15;4.00;;;11.00;84.90;;;;;;4991793;28;20045;-68
2023/04/05 10:53:50;;;;;;;6.35;3.88;;;11.00;82.40;;;;;;4990501;28;20499;-68
2023/04/05 10:56:16;;;;;;;7.35;3.85;;;11.10;82.80;;;;;;4997580;28;20508;-69
2023/04/05 10:58:43;;;;;;;8.15;4.00;;;11.20;82.90;;;;;;4997782;28;20050;-69
2023/04/05 11:01:09;;;;;;;;;;;11.30;82.40;;;;;;4990685;28;20054;-69
2023/04/05 11:03:44;;;;;;;8.95;3.72;;;11.50;79.20;;;;;;4981860;28;20029;-69
2023/04/05 11:06:28;;;;;;;7.45;3.75;;;11.60;80.20;;;;;;4999222;28;20033;-69
2023/04/05 11:09:14;;;;;;;8.82;4.13;;;11.70;80.70;;;;;;4994514;28;20519;-69
2023/04/05 11:11:44;;;;;;;7.82;3.65;;;11.80;78.20;;;;;;4999840;28;20071;-68
2023/04/05 11:14:24;;;;;;;7.38;4.57;;;11.90;80.90;;;;;;4993084;28;20066;-68
2023/04/05 11:16:58;;;;;;;8.60;4.53;;;12.00;80.00;;;;;;4987795;28;20177;-68
2023/04/05 11:19:42;;;;;;;7.00;4.75;;;12.10;77.30;;;;;;4991379;28;20034;-68
2023/04/05 11:22:08;;;;;;;6.35;3.92;;;12.20;75.40;;;;;;4985765;28;20088;-68
2023/04/05 11:25:01;;;;;;;7.55;3.88;;;12.30;78.00;;;;;;4993087;28;20459;-68
2023/04/05 11:27:29;;;;;;;7.55;3.78;;;12.50;76.20;;;;;;4994644;28;20042;-69
2023/04/05 11:30:00;;;;;;;7.70;3.65;;;12.50;75.20;;;;;;5000355;28;20265;-69
2023/04/05 11:32:42;;;;;;;7.03;3.53;;;12.60;75.30;;;;;;4999293;28;20037;-69
2023/04/05 11:35:23;;;;;;;7.75;3.38;;;12.80;73.60;;;;;;4997030;28;20037;-68
2023/04/05 11:37:54;;;;;;;7.15;3.80;;;12.70;71.70;;;;;;4994496;28;20038;-68
2023/04/05 11:40:35;;;;;;;6.13;3.58;;;12.80;73.10;;;;;;4997869;28;20573;-68
2023/04/05 11:43:04;;;;;;;6.07;3.65;;;12.90;71.70;;;;;;5000272;28;20132;-69
2023/04/05 11:45:31;;;;;;;9.55;3.97;;;13.00;70.70;;;;;;4994094;28;20038;-69
2023/04/05 11:47:59;;;;;;;6.25;3.63;;;12.90;70.40;;;;;;4997647;28;20038;-68
2023/04/05 11:50:28;;;;;;;9.18;3.58;;;13.00;70.40;;;;;;5003234;28;20042;-68
2023/04/05 11:53:14;;;;;;;6.82;3.80;;;13.00;68.10;;;;;;4999815;28;20093;-70
2023/04/05 11:55:51;;;;;;;7.23;3.63;;;13.00;68.70;;;;;;4997951;28;20126;-68
2023/04/05 11:58:22;;;;;;;7.03;3.38;;;13.10;69.50;;;;;;5003954;28;20111;-68
2023/04/05 12:00:56;;;;;;;6.95;4.03;;;13.20;70.10;;;;;;4999434;28;20080;-68
2023/04/05 12:03:27;;;;;;;8.82;4.28;;;13.30;69.70;;;;;;5025753;22;20097;-82
2023/04/05 12:06:01;;;;;;;7.68;3.50;;;13.50;69.20;;;;;;4974742;28;20050;-83
2023/04/05 12:09:12;;;;;;;7.78;3.85;;;13.60;68.30;;;;;;4978843;28;20042;-83
2023/04/05 12:11:40;;;;;;;6.47;3.72;;;13.70;69.00;;;;;;4985023;28;20137;-83
2023/04/05 12:14:09;;;;;;;4.78;3.05;;;13.70;67.90;;;;;;4986740;28;20117;-82
2023/04/05 12:16:50;;;;;;;6.00;3.03;;;13.70;67.90;;;;;;4997496;28;20065;-83
2023/04/05 12:19:29;;;;;;;10.57;4.00;;;13.50;66.80;;;;;;4992380;28;20408;-83
2023/04/05 12:22:08;;;;;;;;;;;;;;;;;;;;;
2023/04/05 12:24:44;;;;;;;6.88;3.63;;;13.60;67.10;;;;;;4990877;28;20042;-83
2023/04/05 12:27:42;;;;;;;8.77;3.63;;;13.80;65.60;;;;;;4970355;28;20057;-83
2023/04/05 12:30:36;;;;;;;;;;;;;;;;;;;;;
2023/04/05 12:33:32;;;;;;;6.60;3.60;;;14.10;64.40;;;;;;4988722;28;20103;-83
2023/04/05 12:36:03;;;;;;;5.57;3.35;;;14.30;63.80;;;;;;4989912;28;20049;-83
2023/04/05 12:38:29;;;;;;;7.43;3.17;;;14.40;65.00;;;;;;4988804;28;20046;-80
2023/04/05 12:41:12;;;;;;;8.07;3.00;;;14.60;64.80;;;;;;4969830;28;20129;-83
2023/04/05 12:43:46;;;;;;;6.32;3.40;;;14.50;63.50;;;;;;4988668;28;20480;-83
2023/04/05 12:46:24;;;;;;;7.43;3.50;;;14.50;63.60;;;;;;4960078;28;20242;-83
2023/04/05 12:49:05;;;;;;;4.90;2.90;;;14.50;63.10;;;;;;4979446;28;20075;-83
2023/04/05 12:51:31;;;;;;;7.65;3.15;;;14.60;63.90;;;;;;4995463;28;20137;-83
2023/04/05 12:54:02;;;;;;;4.88;2.55;;;14.70;63.80;;;;;;4985125;28;20545;-84
2023/04/05 12:56:40;;;;;;;;;;;;;;;;;;;;;
2023/04/05 12:59:06;;;;;;;6.35;3.45;;;14.90;62.20;;;;;;4992933;28;20050;-83
2023/04/05 13:01:42;;;;;;;6.28;3.30;;;15.00;62.10;;;;;;4971008;28;20034;-83
2023/04/05 13:04:08;;;;;;;5.70;3.15;;;15.00;61.00;;;;;;4967782;28;20050;-82
2023/04/05 13:06:53;;;;;;;;;;;;;;;;;;;;;
2023/04/05 13:09:20;;;;;;;5.22;3.60;;;15.00;60.20;;;;;;4992574;28;20617;-83
2023/04/05 13:11:49;;;;;;;6.07;3.03;;;15.10;60.30;;;;;;4976740;28;20050;-83
2023/04/05 13:14:17;;;;;;;6.40;3.38;;;15.10;58.90;;;;;;4994071;28;20046;-81
2023/04/05 13:16:46;;;;;;;6.75;3.25;;;15.10;59.60;;;;;;4967915;28;20033;-82